createdAt,value
2019-04-03T00:02:04.379Z,100246.92
2019-04-03T00:04:34.378Z,100245.34
2019-04-03T00:07:03.863Z,100239.30
2019-04-03T00:09:35.839Z,100243.30
2019-04-03T00:12:04.559Z,100242.83
2019-04-03T00:14:33.412Z,100242.89
2019-04-03T00:17:02.134Z,100245.16
2019-04-03T00:19:30.997Z,100239.28
2019-04-03T00:22:05.619Z,100236.59
2019-04-03T00:24:34.335Z,100243.70
2019-04-03T00:27:03.189Z,100248.91
2019-04-03T00:29:31.922Z,100245.58
2019-04-03T00:32:01.640Z,100241.84
2019-04-03T00:34:30.410Z,100239.28
2019-04-03T00:36:59.132Z,100243.47
2019-04-03T00:39:27.858Z,100239.49
2019-04-03T00:41:56.668Z,100236.27
2019-04-03T00:44:25.487Z,100231.73
2019-04-03T00:46:55.554Z,100230.69
2019-04-03T00:49:26.077Z,100226.47
2019-04-03T00:51:57.131Z,100220.44
2019-04-03T00:54:26.465Z,100221.94
2019-04-03T00:56:56.484Z,100221.11
2019-04-03T00:59:26.396Z,100216.80
2019-04-03T01:01:56.568Z,100212.58
2019-04-03T01:04:28.310Z,100211.38
2019-04-03T01:06:56.835Z,100212.12
2019-04-03T01:09:29.054Z,100210.09
2019-04-03T01:11:58.787Z,100205.00
2019-04-03T01:14:27.900Z,100211.08
2019-04-03T01:16:56.940Z,100201.34
2019-04-03T01:19:25.776Z,100199.73
2019-04-03T01:21:54.502Z,100202.32
2019-04-03T01:24:23.295Z,100203.82
2019-04-03T01:26:52.196Z,100204.87
2019-04-03T01:29:20.899Z,100205.02
2019-04-03T01:31:49.615Z,100205.78
2019-04-03T01:34:18.370Z,100205.87
2019-04-03T01:36:48.156Z,100205.95
2019-04-03T01:39:18.978Z,100202.58
2019-04-03T01:41:48.073Z,100207.14
2019-04-03T01:44:16.818Z,100203.23
2019-04-03T01:46:47.110Z,100195.17
2019-04-03T01:49:15.918Z,100192.67
2019-04-03T01:51:44.644Z,100192.56
2019-04-03T01:54:13.359Z,100186.90
2019-04-03T01:56:42.446Z,100189.66
2019-04-03T01:59:11.155Z,100184.87
2019-04-03T02:01:39.877Z,100183.02
2019-04-03T02:04:08.656Z,100192.94
2019-04-03T02:06:37.384Z,100191.05
2019-04-03T02:09:10.687Z,100186.63
2019-04-03T02:11:39.637Z,100192.69
2019-04-03T02:14:08.356Z,100186.17
2019-04-03T02:16:37.264Z,100187.61
2019-04-03T02:19:06.066Z,100183.73
2019-04-03T02:21:34.786Z,100183.25
2019-04-03T02:24:03.506Z,100181.21
2019-04-03T02:26:33.069Z,100179.23
2019-04-03T02:29:04.277Z,100172.77
2019-04-03T02:31:32.299Z,100175.95
2019-04-03T02:34:02.282Z,100173.99
2019-04-03T02:36:31.470Z,100173.99
2019-04-03T02:39:00.200Z,100175.14
2019-04-03T02:41:29.448Z,100171.95
2019-04-03T02:43:58.488Z,100175.04
2019-04-03T02:46:29.039Z,100169.17
2019-04-03T02:48:57.984Z,100173.89
2019-04-03T02:51:26.977Z,100166.98
2019-04-03T02:53:55.799Z,100167.78
2019-04-03T02:56:24.879Z,100163.75
2019-04-03T02:58:54.974Z,100166.89
2019-04-03T03:01:24.180Z,100163.23
2019-04-03T03:03:53.052Z,100165.45
2019-04-03T03:06:21.769Z,100160.98
2019-04-03T03:08:51.589Z,100164.34
2019-04-03T03:11:24.729Z,100166.77
2019-04-03T03:13:54.367Z,100160.10
2019-04-03T03:16:23.095Z,100157.95
2019-04-03T03:18:52.126Z,100163.13
2019-04-03T03:21:21.592Z,100161.58
2019-04-03T03:23:50.310Z,100162.68
2019-04-03T03:26:19.576Z,100160.20
2019-04-03T03:28:49.089Z,100164.94
2019-04-03T03:31:19.119Z,100168.42
2019-04-03T03:33:48.364Z,100164.91
2019-04-03T03:36:22.664Z,100166.02
2019-04-03T03:38:48.770Z,100168.66
2019-04-03T03:41:22.089Z,100164.30
2019-04-03T03:43:48.577Z,100168.33
2019-04-03T03:46:18.142Z,100169.52
2019-04-03T03:48:47.134Z,100169.21
2019-04-03T03:51:16.426Z,100165.04
2019-04-03T03:53:47.595Z,100167.59
2019-04-03T03:56:18.773Z,100175.82
2019-04-03T03:58:49.202Z,100166.03
2019-04-03T04:01:18.952Z,100174.24
2019-04-03T04:03:47.876Z,100176.08
2019-04-03T04:06:16.898Z,100176.38
2019-04-03T04:08:45.877Z,100178.72
2019-04-03T04:11:14.696Z,100178.92
2019-04-03T04:13:47.436Z,100180.61
2019-04-03T04:16:15.646Z,100183.20
2019-04-03T04:18:44.430Z,100183.20
2019-04-03T04:21:13.252Z,100186.81
2019-04-03T04:23:41.976Z,100173.84
2019-04-03T04:26:11.244Z,100179.87
2019-04-03T04:28:40.704Z,100175.00
2019-04-03T04:31:12.342Z,100175.78
2019-04-03T04:33:40.328Z,100176.79
2019-04-03T04:36:09.265Z,100177.62
2019-04-03T04:38:37.971Z,100174.98
2019-04-03T04:41:06.988Z,100176.86
2019-04-03T04:43:35.709Z,100175.46
2019-04-03T04:46:04.428Z,100173.95
2019-04-03T04:48:33.186Z,100173.03
2019-04-03T04:51:01.903Z,100171.80
2019-04-03T04:53:30.802Z,100179.82
2019-04-03T04:55:59.803Z,100175.59
2019-04-03T04:58:28.490Z,100181.75
2019-04-03T05:00:57.217Z,100183.94
2019-04-03T05:03:26.325Z,100186.41
2019-04-03T05:05:57.258Z,100185.63
2019-04-03T05:08:25.453Z,100190.84
2019-04-03T05:10:54.256Z,100188.51
2019-04-03T05:13:24.102Z,100186.00
2019-04-03T05:15:53.926Z,100182.39
2019-04-03T05:18:24.779Z,100186.31
2019-04-03T05:20:53.466Z,100191.41
2019-04-03T05:23:22.196Z,100192.63
2019-04-03T05:25:51.102Z,100189.79
2019-04-03T05:28:19.834Z,100190.97
2019-04-03T05:30:48.554Z,100188.00
2019-04-03T05:33:17.518Z,100189.55
2019-04-03T05:35:46.643Z,100181.12
2019-04-03T05:38:15.613Z,100187.45
2019-04-03T05:40:44.499Z,100182.45
2019-04-03T05:43:13.222Z,100180.58
2019-04-03T05:45:42.355Z,100182.30
2019-04-03T05:48:13.393Z,100186.12
2019-04-03T05:50:41.926Z,100183.81
2019-04-03T05:53:10.645Z,100179.95
2019-04-03T05:55:41.009Z,100181.58
2019-04-03T05:58:09.866Z,100181.59
2019-04-03T06:00:38.818Z,100182.62
2019-04-03T06:03:07.953Z,100174.55
2019-04-03T06:05:36.675Z,100172.69
2019-04-03T06:08:05.403Z,100172.42
2019-04-03T06:10:37.152Z,100177.41
2019-04-03T06:13:06.068Z,100174.04
2019-04-03T06:15:35.184Z,100174.53
2019-04-03T06:18:04.381Z,100173.77
2019-04-03T06:20:33.109Z,100179.23
2019-04-03T06:23:02.128Z,100181.29
2019-04-03T06:25:31.394Z,100186.73
2019-04-03T06:28:00.808Z,100188.07
2019-04-03T06:30:29.520Z,100187.00
2019-04-03T06:33:00.960Z,100183.30
2019-04-03T06:35:34.614Z,100190.80
2019-04-03T06:38:01.911Z,100188.92
2019-04-03T06:40:31.200Z,100180.86
2019-04-03T06:43:00.020Z,100190.42
2019-04-03T06:45:28.796Z,100190.73
2019-04-03T06:47:57.518Z,100192.23
2019-04-03T06:50:26.272Z,100183.13
2019-04-03T06:52:55.226Z,100188.55
2019-04-03T06:55:25.371Z,100187.92
2019-04-03T06:57:54.280Z,100190.77
2019-04-03T07:00:23.010Z,100189.54
2019-04-03T07:02:51.998Z,100184.96
2019-04-03T07:05:20.878Z,100187.04
2019-04-03T07:07:49.789Z,100189.59
2019-04-03T07:10:25.335Z,100193.92
2019-04-03T07:12:49.024Z,100193.47
2019-04-03T07:15:17.750Z,100195.50
2019-04-03T07:17:48.201Z,100199.16
2019-04-03T07:20:19.349Z,100204.95
2019-04-03T07:22:47.446Z,100196.48
2019-04-03T07:25:16.467Z,100203.12
2019-04-03T07:27:45.194Z,100204.30
2019-04-03T07:30:16.808Z,100203.33
2019-04-03T07:32:45.016Z,100209.43
2019-04-03T07:35:13.734Z,100209.10
2019-04-03T07:37:42.653Z,100210.61
2019-04-03T07:40:12.307Z,100207.40
2019-04-03T07:42:41.076Z,100206.70
2019-04-03T07:48:00.080Z,100206.29
2019-04-03T07:50:28.812Z,100199.50
2019-04-03T07:52:57.604Z,100202.61
2019-04-03T07:55:27.955Z,100200.48
2019-04-03T07:58:00.032Z,100198.98
2019-04-03T08:00:28.933Z,100198.88
2019-04-03T08:02:57.665Z,100194.10
2019-04-03T08:05:26.386Z,100197.18
2019-04-03T08:07:55.473Z,100189.23
2019-04-03T08:10:24.260Z,100191.80
2019-04-03T08:12:53.124Z,100190.92
2019-04-03T08:15:22.056Z,100183.37
2019-04-03T08:17:50.994Z,100182.52
2019-04-03T08:20:20.577Z,100179.51
2019-04-03T08:22:49.494Z,100181.45
2019-04-03T08:25:18.489Z,100176.33
2019-04-03T08:27:48.687Z,100174.80
2019-04-03T08:30:17.891Z,100168.97
2019-04-03T08:32:48.184Z,100174.94
2019-04-03T08:35:21.582Z,100176.48
2019-04-03T08:37:47.779Z,100170.44
2019-04-03T08:40:20.019Z,100165.33
2019-04-03T08:42:47.498Z,100170.07
2019-04-03T08:45:16.362Z,100162.97
2019-04-03T08:47:46.274Z,100164.82
2019-04-03T08:50:15.676Z,100163.45
2019-04-03T08:52:44.531Z,100164.16
2019-04-03T08:55:14.510Z,100163.95
2019-04-03T08:57:45.960Z,100162.16
2019-04-03T09:00:14.296Z,100156.91
2019-04-03T09:02:43.919Z,100164.61
2019-04-03T09:05:14.120Z,100158.81
2019-04-03T09:07:43.585Z,100154.61
2019-04-03T09:10:12.918Z,100153.96
2019-04-03T09:12:42.037Z,100143.00
2019-04-03T09:15:11.610Z,100149.57
2019-04-03T09:17:40.334Z,100147.58
2019-04-03T09:20:12.884Z,100138.13
2019-04-03T09:22:40.401Z,100140.05
2019-04-03T09:25:09.759Z,100129.20
2019-04-03T09:27:40.349Z,100127.02
2019-04-03T09:30:16.177Z,100126.16
2019-04-03T09:32:44.412Z,100126.19
2019-04-03T09:35:14.262Z,100115.47
2019-04-03T09:37:45.639Z,100119.95
2019-04-03T09:40:16.464Z,100107.41
2019-04-03T09:42:44.678Z,100104.92
2019-04-03T09:45:13.977Z,100107.05
2019-04-03T09:47:42.702Z,100099.77
2019-04-03T09:50:13.950Z,100092.11
2019-04-03T09:52:48.161Z,100089.25
2019-04-03T09:55:13.411Z,100086.75
2019-04-03T09:57:42.225Z,100083.94
2019-04-03T10:00:12.157Z,100084.01
2019-04-03T10:02:41.214Z,100078.69
2019-04-03T10:05:10.506Z,100078.20
2019-04-03T10:07:39.363Z,100068.06
2019-04-03T10:10:09.064Z,100070.27
2019-04-03T10:12:38.032Z,100057.35
2019-04-03T10:15:10.092Z,100061.47
2019-04-03T10:17:39.584Z,100052.88
2019-04-03T10:20:10.230Z,100053.50
2019-04-03T10:22:39.101Z,100048.23
2019-04-03T10:25:09.323Z,100040.34
2019-04-03T10:27:38.033Z,100037.61
2019-04-03T10:30:13.003Z,100035.55
2019-04-03T10:32:42.015Z,100028.82
2019-04-03T10:35:10.950Z,100023.30
2019-04-03T10:37:40.030Z,100015.48
2019-04-03T10:40:10.363Z,100014.53
2019-04-03T10:42:39.222Z,100010.56
2019-04-03T10:45:09.984Z,100005.06
2019-04-03T10:47:57.248Z,100008.59
2019-04-03T10:50:26.583Z,100004.88
2019-04-03T10:52:55.406Z,99990.18
2019-04-03T10:55:24.097Z,99987.38
2019-04-03T10:57:55.232Z,99989.77
2019-04-03T11:00:25.018Z,99975.95
2019-04-03T11:02:54.348Z,99979.94
2019-04-03T11:05:23.102Z,99979.50
2019-04-03T11:07:51.830Z,99979.64
2019-04-03T11:10:23.364Z,99973.03
2019-04-03T11:12:51.073Z,99961.75
2019-04-03T11:15:21.278Z,99962.48
2019-04-03T11:17:50.214Z,99957.48
2019-04-03T11:20:19.531Z,99947.89
2019-04-03T11:22:49.004Z,99949.94
2019-04-03T11:25:17.834Z,99943.70
2019-04-03T11:27:46.786Z,99946.19
2019-04-03T11:30:19.124Z,99940.37
2019-04-03T11:32:47.117Z,99932.77
2019-04-03T11:35:16.406Z,99926.36
2019-04-03T11:37:45.190Z,99921.75
2019-04-03T11:40:17.402Z,99919.09
2019-04-03T11:42:45.914Z,99916.23
2019-04-03T11:45:16.036Z,99914.80
2019-04-03T11:47:45.887Z,99913.14
2019-04-03T11:50:16.720Z,99905.73
2019-04-03T11:52:45.578Z,99898.06
2019-04-03T11:55:15.588Z,99899.06
2019-04-03T11:57:47.470Z,99894.37
2019-04-03T12:00:19.969Z,99892.88
2019-04-03T12:02:48.726Z,99888.55
2019-04-03T12:05:20.814Z,99895.15
2019-04-03T12:07:49.247Z,99888.52
2019-04-03T12:10:17.989Z,99873.27
2019-04-03T12:12:46.994Z,99879.65
2019-04-03T12:15:16.574Z,99872.58
2019-04-03T12:17:45.600Z,99872.14
2019-04-03T12:20:16.512Z,99872.27
2019-04-03T12:22:45.448Z,99866.34
2019-04-03T12:25:15.182Z,99854.48
2019-04-03T12:27:46.020Z,99850.80
2019-04-03T12:30:15.202Z,99845.91
2019-04-03T12:32:48.756Z,99845.81
2019-04-03T12:35:14.752Z,99829.36
2019-04-03T12:37:43.673Z,99832.58
2019-04-03T12:40:12.682Z,99823.63
2019-04-03T12:42:41.464Z,99823.81
2019-04-03T12:45:10.787Z,99824.41
2019-04-03T12:47:39.508Z,99817.58
2019-04-03T12:50:11.840Z,99817.70
2019-04-03T12:52:39.767Z,99809.34
2019-04-03T12:55:09.732Z,99810.67
2019-04-03T12:57:40.208Z,99807.82
2019-04-03T13:00:12.529Z,99803.83
2019-04-03T13:02:41.353Z,99799.22
2019-04-03T13:05:11.141Z,99792.89
2019-04-03T13:07:40.332Z,99799.56
2019-04-03T13:10:10.049Z,99791.59
2019-04-03T13:12:39.280Z,99787.39
2019-04-03T13:15:10.598Z,99786.19
2019-04-03T13:17:39.457Z,99788.60
2019-04-03T13:20:09.277Z,99778.20
2019-04-03T13:22:39.990Z,99784.47
2019-04-03T13:25:09.590Z,99781.47
2019-04-03T13:27:38.453Z,99774.56
2019-04-03T13:30:11.469Z,99779.48
2019-04-03T13:32:39.654Z,99779.64
2019-04-03T13:35:09.608Z,99770.45
2019-04-03T13:37:38.333Z,99771.78
2019-04-03T13:40:07.867Z,99773.97
2019-04-03T13:42:36.751Z,99767.34
2019-04-03T13:45:12.395Z,99772.31
2019-04-03T13:47:42.977Z,99770.15
2019-04-03T13:50:12.652Z,99768.15
2019-04-03T13:52:47.524Z,99769.29
2019-04-03T13:55:12.151Z,99761.20
2019-04-03T13:57:40.948Z,99767.42
2019-04-03T14:00:20.682Z,99766.41
2019-04-03T14:02:44.962Z,99760.95
2019-04-03T14:05:13.272Z,99761.64
2019-04-03T14:07:42.635Z,99758.45
2019-04-03T14:10:12.105Z,99749.42
2019-04-03T14:12:44.154Z,99740.50
2019-04-03T14:15:11.582Z,99744.78
2019-04-03T14:17:40.458Z,99751.30
2019-04-03T14:20:10.831Z,99741.02
2019-04-03T14:22:39.575Z,99748.84
2019-04-03T14:25:18.944Z,99743.48
2019-04-03T14:27:39.600Z,99746.97
2019-04-03T14:30:11.158Z,99742.58
2019-04-03T14:32:40.109Z,99741.05
2019-04-03T14:35:38.512Z,99740.84
2019-04-03T14:37:39.832Z,99741.60
2019-04-03T14:40:11.105Z,99738.73
2019-04-03T14:42:39.235Z,99732.02
2019-04-03T14:45:13.344Z,99738.62
2019-04-03T14:47:40.654Z,99733.66
2019-04-03T14:50:10.187Z,99732.01
2019-04-03T14:52:39.454Z,99729.35
2019-04-03T14:55:19.905Z,99726.04
2019-04-03T14:57:43.525Z,99721.33
2019-04-03T15:00:30.831Z,99722.34
2019-04-03T15:02:43.490Z,99720.35
2019-04-03T15:05:12.315Z,99716.08
2019-04-03T15:07:41.051Z,99716.41
2019-04-03T15:10:11.324Z,99710.25
2019-04-03T15:12:41.019Z,99704.83
2019-04-03T15:15:10.134Z,99705.70
2019-04-03T15:17:39.133Z,99713.53
2019-04-03T15:20:09.678Z,99706.27
2019-04-03T15:22:38.389Z,99711.96
2019-04-03T15:25:08.765Z,99709.09
2019-04-03T15:27:38.230Z,99715.62
2019-04-03T15:30:10.962Z,99714.03
2019-04-03T15:32:40.164Z,99707.83
2019-04-03T15:35:09.213Z,99707.95
2019-04-03T15:37:40.131Z,99703.77
2019-04-03T15:40:09.284Z,99708.65
2019-04-03T15:42:40.337Z,99708.22
2019-04-03T15:45:10.270Z,99708.34
2019-04-03T15:47:44.982Z,99702.95
2019-04-03T15:50:09.976Z,99708.93
2019-04-03T15:52:38.800Z,99707.33
2019-04-03T15:55:08.683Z,99703.11
2019-04-03T15:57:39.783Z,99705.70
2019-04-03T16:00:11.053Z,99698.03
2019-04-03T16:02:40.421Z,99692.70
2019-04-03T16:05:09.745Z,99695.52
2019-04-03T16:07:41.645Z,99692.64
2019-04-03T16:10:09.597Z,99697.94
2019-04-03T16:12:41.608Z,99695.71
2019-04-03T16:15:09.781Z,99691.66
2019-04-03T16:17:39.716Z,99691.55
2019-04-03T16:20:09.011Z,99692.46
2019-04-03T16:22:38.162Z,99692.66
2019-04-03T16:25:08.245Z,99694.11
2019-04-03T16:27:37.805Z,99690.78
2019-04-03T16:30:09.712Z,99689.77
2019-04-03T16:32:39.060Z,99689.84
2019-04-03T16:35:08.768Z,99688.32
2019-04-03T16:37:37.577Z,99690.45
2019-04-03T16:40:10.135Z,99693.17
2019-04-03T16:42:39.385Z,99697.26
2019-04-03T16:45:10.520Z,99694.17
2019-04-03T16:47:40.164Z,99695.16
2019-04-03T16:50:10.115Z,99692.67
2019-04-03T16:52:38.893Z,99700.31
2019-04-03T16:55:08.067Z,99695.49
2019-04-03T16:57:37.161Z,99698.63
2019-04-03T17:00:11.225Z,99696.59
2019-04-03T17:02:40.340Z,99693.10
2019-04-03T17:05:11.187Z,99695.73
2019-04-03T17:07:40.483Z,99690.05
2019-04-03T17:10:10.706Z,99694.88
2019-04-03T17:12:39.599Z,99697.80
2019-04-03T17:15:09.972Z,99697.53
2019-04-03T17:17:39.157Z,99695.95
2019-04-03T17:20:09.355Z,99702.05
2019-04-03T17:22:40.701Z,99697.88
2019-04-03T17:25:10.683Z,99704.76
2019-04-03T17:27:39.428Z,99711.95
2019-04-03T17:30:09.284Z,99713.45
2019-04-03T17:32:38.793Z,99716.31
2019-04-03T17:35:08.747Z,99718.21
2019-04-03T17:37:38.384Z,99721.95
2019-04-03T17:40:11.472Z,99724.11
2019-04-03T17:42:40.400Z,99729.76
2019-04-03T17:45:15.521Z,99735.13
2019-04-03T17:47:43.059Z,99736.81
2019-04-03T17:50:13.325Z,99744.62
2019-04-03T17:52:42.187Z,99744.18
2019-04-03T17:55:11.296Z,99749.15
2019-04-03T17:57:40.108Z,99742.06
2019-04-03T18:00:20.494Z,99746.92
2019-04-03T18:02:47.725Z,99755.21
2019-04-03T18:05:17.534Z,99756.95
2019-04-03T18:07:46.286Z,99764.49
2019-04-03T18:10:15.199Z,99764.52
2019-04-03T18:12:45.685Z,99762.50
2019-04-03T18:15:16.199Z,99766.75
2019-04-03T18:17:44.919Z,99766.80
2019-04-03T18:20:14.641Z,99769.64
2019-04-03T18:22:43.777Z,99775.10
2019-04-03T18:25:12.784Z,99771.91
2019-04-03T18:27:41.510Z,99776.38
2019-04-03T18:30:12.554Z,99779.27
2019-04-03T18:32:41.451Z,99784.64
2019-04-03T18:35:11.477Z,99777.31
2019-04-03T18:37:41.420Z,99780.98
2019-04-03T18:40:15.081Z,99786.37
2019-04-03T18:42:42.869Z,99783.95
2019-04-03T18:45:24.147Z,99785.95
2019-04-03T18:47:45.790Z,99788.64
2019-04-03T18:50:13.488Z,99793.42
2019-04-03T18:52:42.287Z,99793.86
2019-04-03T18:55:13.940Z,99796.27
2019-04-03T18:57:41.587Z,99796.50
2019-04-03T19:00:12.281Z,99802.73
2019-04-03T19:02:41.505Z,99807.17
2019-04-03T19:05:13.738Z,99804.80
2019-04-03T19:07:41.132Z,99807.97
2019-04-03T19:10:10.056Z,99812.78
2019-04-03T19:12:38.782Z,99810.58
2019-04-03T19:15:08.273Z,99813.15
2019-04-03T19:17:36.999Z,99809.89
2019-04-03T19:20:11.186Z,99813.81
2019-04-03T19:22:39.559Z,99817.05
2019-04-03T19:25:08.889Z,99816.34
2019-04-03T19:27:37.610Z,99819.03
2019-04-03T19:30:08.121Z,99819.80
2019-04-03T19:32:37.015Z,99823.27
2019-04-03T19:35:09.449Z,99829.23
2019-04-03T19:37:38.525Z,99833.35
2019-04-03T19:40:09.776Z,99831.95
2019-04-03T19:42:38.187Z,99835.88
2019-04-03T19:45:08.513Z,99831.47
2019-04-03T19:47:37.237Z,99837.97
2019-04-03T19:50:08.668Z,99836.91
2019-04-03T19:52:39.446Z,99840.27
2019-04-03T19:55:08.416Z,99832.48
2019-04-03T19:57:37.156Z,99833.44
2019-04-03T20:00:08.798Z,99835.95
2019-04-03T20:02:38.179Z,99841.90
2019-04-03T20:05:07.658Z,99834.42
2019-04-03T20:07:36.436Z,99832.09
2019-04-03T20:10:10.277Z,99840.20
2019-04-03T20:12:38.993Z,99840.13
2019-04-03T20:15:08.577Z,99845.66
2019-04-03T20:17:37.278Z,99850.02
2019-04-03T20:20:07.733Z,99847.22
2019-04-03T20:22:37.872Z,99857.39
2019-04-03T20:25:07.699Z,99853.23
2019-04-03T20:27:36.545Z,99859.00
2019-04-03T20:30:09.297Z,99867.38
2019-04-03T20:32:40.126Z,99866.59
2019-04-03T20:35:08.451Z,99872.59
2019-04-03T20:37:37.310Z,99871.82
2019-04-03T20:40:07.220Z,99876.25
2019-04-03T20:42:36.034Z,99872.34
2019-04-03T20:45:09.021Z,99880.94
2019-04-03T20:47:37.734Z,99878.61
2019-04-03T20:50:08.854Z,99878.86
2019-04-03T20:52:37.629Z,99878.89
2019-04-03T20:55:08.017Z,99883.05
2019-04-03T20:57:36.723Z,99880.22
2019-04-03T21:00:14.244Z,99887.50
2019-04-03T21:02:43.452Z,99892.72
2019-04-03T21:05:12.484Z,99891.41
2019-04-03T21:07:41.265Z,99895.59
2019-04-03T21:10:10.173Z,99899.48
2019-04-03T21:12:38.888Z,99897.16
2019-04-03T21:15:09.362Z,99898.45
2019-04-03T21:17:38.245Z,99897.42
2019-04-03T21:20:07.456Z,99901.05
2019-04-03T21:22:36.586Z,99903.41
2019-04-03T21:25:06.999Z,99902.62
2019-04-03T21:27:35.726Z,99909.63
2019-04-03T21:30:07.208Z,99907.05
2019-04-03T21:32:35.921Z,99906.77
2019-04-03T21:35:05.244Z,99908.31
2019-04-03T21:37:34.026Z,99905.95
2019-04-03T21:40:04.873Z,99903.86
2019-04-03T21:42:33.166Z,99908.02
2019-04-03T21:45:04.955Z,99902.61
2019-04-03T21:47:32.768Z,99899.75
2019-04-03T21:50:03.601Z,99899.74
2019-04-03T21:52:32.722Z,99895.07
2019-04-03T21:55:04.586Z,99902.63
2019-04-03T21:57:31.877Z,99906.52
2019-04-03T22:00:00.671Z,99898.43
2019-04-03T22:02:29.411Z,99903.13
2019-04-03T22:04:58.124Z,99905.70
2019-04-03T22:07:28.597Z,99903.11
2019-04-03T22:09:57.373Z,99909.84
2019-04-03T22:12:26.304Z,99901.83
2019-04-03T22:14:57.827Z,99911.41
2019-04-03T22:17:26.620Z,99914.06
2019-04-03T22:19:58.354Z,99907.23
2019-04-03T22:22:25.977Z,99914.00
2019-04-03T22:24:54.764Z,99916.59
2019-04-03T22:27:23.563Z,99923.11
2019-04-03T22:29:52.391Z,99925.95
2019-04-03T22:32:21.189Z,99916.32
2019-04-03T22:34:49.988Z,99915.55
2019-04-03T22:37:18.910Z,99923.34
2019-04-03T22:39:47.709Z,99922.02
2019-04-03T22:42:16.514Z,99928.55
2019-04-03T22:44:47.657Z,99925.16
2019-04-03T22:47:15.911Z,99922.78
2019-04-03T22:49:44.699Z,99923.31
2019-04-03T22:52:13.646Z,99923.77
2019-04-03T22:54:43.857Z,99919.63
2019-04-03T22:57:12.966Z,99922.52
2019-04-03T22:59:41.879Z,99923.75
2019-04-03T23:02:10.690Z,99929.23
2019-04-03T23:04:41.876Z,99919.34
2019-04-03T23:07:10.171Z,99925.30
2019-04-03T23:09:38.961Z,99920.09
2019-04-03T23:12:07.754Z,99917.04
2019-04-03T23:14:38.256Z,99915.69
2019-04-03T23:17:07.235Z,99913.34
2019-04-03T23:19:36.023Z,99913.05
2019-04-03T23:22:04.976Z,99916.11
2019-04-03T23:24:33.777Z,99909.64
2019-04-03T23:27:03.159Z,99912.02
2019-04-03T23:29:32.285Z,99909.39
2019-04-03T23:32:01.086Z,99909.86
2019-04-03T23:34:29.885Z,99911.11
2019-04-03T23:36:58.755Z,99919.75
2019-04-03T23:39:28.379Z,99907.17
2019-04-03T23:41:57.302Z,99910.28
2019-04-03T23:44:26.592Z,99902.99
2019-04-03T23:46:55.377Z,99907.36
2019-04-03T23:49:24.179Z,99897.72
2019-04-03T23:51:53.584Z,99899.23
2019-04-03T23:54:22.380Z,99897.92
2019-04-03T23:56:51.176Z,99897.18
2019-04-03T23:59:20.048Z,99905.50
